Villas del Norte, Puerto Rico
Current Conditions -  °F | °C
As of 4:56 AM on Thursday 23 Oct 2014 (Local Time) from TJSJ Reporting Station
Broken Clouds Broken Clouds  
Wind Chill: 26°   Ceiling: 3800
Heat Index: 28°   Visibility: 10mi
Dew Point: 23°   Wind: 0mph
Humidity: 82%   Direction: NA
Pressure: 29.92"   Gusts: NA
Location:  18.3346°N, 66.4186°W
Report Text: TJSJ 230856Z 00000KT 10SM FEW029 BKN038 BKN085 26/23 A2992 RMK AO2 RAB22E27 SLP129 P0000 60001 T02610228 50001
Loading
Personal Weather Stations






























Interactive Weather Map
Tropical Storm Tracking
New forecast layout! Learn more

10-Day Weather Forecast

Advertisements
Track Severe Weather on mobile